createdAt,value
2023-04-15T00:02:00.033Z,34.48
2023-04-15T00:04:28.029Z,34.43
2023-04-15T00:06:54.731Z,34.42
2023-04-15T00:09:21.533Z,34.37
2023-04-15T00:11:48.065Z,34.32
2023-04-15T00:14:14.588Z,34.63
2023-04-15T00:16:41.508Z,34.60
2023-04-15T00:19:08.340Z,34.38
2023-04-15T00:21:35.021Z,34.47
2023-04-15T00:24:01.962Z,34.33
2023-04-15T00:26:28.493Z,34.41
2023-04-15T00:28:55.812Z,34.42
2023-04-15T00:31:23.146Z,34.52
2023-04-15T00:33:49.865Z,34.34
2023-04-15T00:36:16.373Z,34.50
2023-04-15T00:38:42.956Z,34.32
2023-04-15T00:41:10.885Z,34.19
2023-04-15T00:43:37.408Z,34.74
2023-04-15T00:46:05.142Z,34.64
2023-04-15T00:48:32.320Z,34.26
2023-04-15T00:50:59.177Z,34.51
2023-04-15T00:53:25.801Z,34.74
2023-04-15T00:55:52.716Z,34.52
2023-04-15T00:58:20.274Z,34.71
2023-04-15T01:00:47.109Z,34.27
2023-04-15T01:03:14.323Z,34.52
2023-04-15T01:05:41.659Z,34.40
2023-04-15T01:08:08.256Z,34.70
2023-04-15T01:10:35.373Z,34.45
2023-04-15T01:13:03.155Z,34.25
2023-04-15T01:15:29.905Z,34.49
2023-04-15T01:17:59.603Z,34.51
2023-04-15T01:20:27.500Z,34.57
2023-04-15T01:22:54.747Z,34.51
2023-04-15T01:25:33.033Z,34.44
2023-04-15T01:28:00.014Z,34.61
2023-04-15T01:30:27.221Z,34.56
2023-04-15T01:32:54.279Z,34.54
2023-04-15T01:35:21.562Z,34.46
2023-04-15T01:37:48.563Z,34.31
2023-04-15T01:40:17.104Z,34.26
2023-04-15T01:42:43.606Z,34.47
2023-04-15T01:45:10.498Z,34.51
2023-04-15T01:47:38.077Z,34.47
2023-04-15T01:50:05.167Z,34.76
2023-04-15T01:52:32.207Z,34.26
2023-04-15T01:54:58.784Z,34.50
2023-04-15T01:57:25.311Z,34.34
2023-04-15T01:59:52.012Z,34.41
2023-04-15T02:02:18.607Z,34.33
2023-04-15T02:04:45.504Z,34.30
2023-04-15T02:07:12.194Z,34.35
2023-04-15T02:09:39.183Z,34.36
2023-04-15T02:12:08.027Z,34.47
2023-04-15T02:14:34.644Z,34.24
2023-04-15T02:17:07.209Z,34.59
2023-04-15T02:19:37.551Z,34.18
2023-04-15T02:22:04.132Z,34.30
2023-04-15T02:24:31.114Z,34.46
2023-04-15T02:26:57.641Z,34.41
2023-04-15T02:29:24.185Z,34.41
2023-04-15T02:31:51.095Z,34.50
2023-04-15T02:34:17.662Z,34.23
2023-04-15T02:36:45.610Z,34.60
2023-04-15T02:39:14.801Z,34.30
2023-04-15T02:41:43.551Z,34.36
2023-04-15T02:44:12.992Z,34.43
2023-04-15T02:46:41.221Z,34.27
2023-04-15T02:49:08.557Z,34.30
2023-04-15T02:51:36.175Z,34.37
2023-04-15T02:54:02.677Z,34.25
2023-04-15T02:56:30.211Z,34.59
2023-04-15T02:58:57.309Z,34.48
2023-04-15T03:01:23.869Z,34.19
2023-04-15T03:03:50.471Z,34.00
2023-04-15T03:06:17.101Z,34.58
2023-04-15T03:08:43.633Z,34.41
2023-04-15T03:11:12.627Z,34.42
2023-04-15T03:13:41.721Z,34.56
2023-04-15T03:16:15.006Z,34.60
2023-04-15T03:18:41.915Z,34.29
2023-04-15T03:21:08.572Z,34.34
2023-04-15T03:23:37.839Z,34.28
2023-04-15T03:26:05.043Z,34.36
2023-04-15T03:28:33.194Z,34.36
2023-04-15T03:31:00.712Z,34.42
2023-04-15T03:33:27.320Z,34.18
2023-04-15T03:35:54.307Z,34.25
2023-04-15T03:38:21.012Z,34.34
2023-04-15T03:40:47.574Z,34.38
2023-04-15T03:43:14.285Z,34.53
2023-04-15T03:45:40.829Z,34.16
2023-04-15T03:48:17.253Z,34.47
2023-04-15T03:50:44.691Z,34.54
2023-04-15T03:53:11.140Z,34.20
2023-04-15T03:55:37.961Z,34.47
2023-04-15T03:58:04.517Z,34.33
2023-04-15T04:00:31.052Z,34.06
2023-04-15T04:02:57.745Z,34.40
2023-04-15T04:05:24.518Z,34.22
2023-04-15T04:07:51.094Z,34.22
2023-04-15T04:10:18.817Z,34.50
2023-04-15T04:12:45.264Z,34.53
2023-04-15T04:15:12.444Z,34.32
2023-04-15T04:17:38.953Z,34.53
2023-04-15T04:20:06.051Z,34.59
2023-04-15T04:22:37.821Z,34.45
2023-04-15T04:25:04.550Z,34.40
2023-04-15T04:27:31.212Z,34.21
2023-04-15T04:29:57.690Z,34.31
2023-04-15T04:32:24.509Z,34.22
2023-04-15T04:34:51.035Z,34.44
2023-04-15T04:37:17.503Z,34.72
2023-04-15T04:39:44.000Z,34.17
2023-04-15T04:42:10.452Z,34.29
2023-04-15T04:44:37.227Z,34.50
2023-04-15T04:47:03.705Z,34.25
2023-04-15T04:49:30.377Z,34.59
2023-04-15T04:51:57.597Z,34.42
2023-04-15T04:54:24.331Z,34.44
2023-04-15T04:56:50.920Z,34.02
2023-04-15T04:59:18.978Z,34.60
2023-04-15T05:01:46.609Z,34.35
2023-04-15T05:04:13.233Z,34.24
2023-04-15T05:06:39.871Z,34.24
2023-04-15T05:09:06.639Z,34.35
2023-04-15T05:11:33.297Z,34.58
2023-04-15T05:14:01.647Z,34.48
2023-04-15T05:16:28.382Z,34.52
2023-04-15T05:18:54.886Z,34.56
2023-04-15T05:21:21.564Z,34.24
2023-04-15T05:23:48.150Z,34.09
2023-04-15T05:26:14.755Z,34.35
2023-04-15T05:28:41.327Z,34.41
2023-04-15T05:31:07.997Z,34.26
2023-04-15T05:33:34.678Z,34.12
2023-04-15T05:36:01.186Z,34.13
2023-04-15T05:38:27.734Z,34.37
2023-04-15T05:40:54.269Z,34.45
2023-04-15T05:43:20.750Z,34.27
2023-04-15T05:45:47.419Z,34.00
2023-04-15T05:48:13.886Z,34.24
2023-04-15T05:50:43.150Z,33.91
2023-04-15T05:53:09.754Z,34.61
2023-04-15T05:55:36.541Z,34.23
2023-04-15T05:58:03.766Z,34.24
2023-04-15T06:00:31.163Z,34.39
2023-04-15T06:02:58.884Z,34.26
2023-04-15T06:05:25.440Z,34.25
2023-04-15T06:07:52.189Z,34.12
2023-04-15T06:10:18.833Z,34.38
2023-04-15T06:12:45.925Z,34.42
2023-04-15T06:15:12.388Z,34.24
2023-04-15T06:17:38.907Z,34.42
2023-04-15T06:20:05.924Z,34.26
2023-04-15T06:22:32.478Z,34.12
2023-04-15T06:24:59.030Z,34.38
2023-04-15T06:27:25.697Z,34.41
2023-04-15T06:29:52.289Z,34.39
2023-04-15T06:32:18.820Z,34.49
2023-04-15T06:34:45.305Z,34.25
2023-04-15T06:37:16.069Z,34.03
2023-04-15T06:39:43.607Z,34.20
2023-04-15T06:42:11.230Z,34.48
2023-04-15T06:44:38.140Z,34.50
2023-04-15T06:47:04.670Z,34.43
2023-04-15T06:49:31.732Z,34.42
2023-04-15T06:51:58.272Z,34.66
2023-04-15T06:54:24.729Z,34.41
2023-04-15T06:56:51.988Z,34.21
2023-04-15T06:59:39.109Z,34.42
2023-04-15T07:02:06.008Z,34.46
2023-04-15T07:04:32.820Z,34.50
2023-04-15T07:07:00.775Z,34.13
2023-04-15T07:09:27.304Z,34.14
2023-04-15T07:11:53.847Z,34.40
2023-04-15T07:14:20.866Z,34.25
2023-04-15T07:16:47.613Z,34.49
2023-04-15T07:19:14.161Z,34.42
2023-04-15T07:21:42.012Z,34.41
2023-04-15T07:24:10.431Z,34.37
2023-04-15T07:26:37.028Z,34.50
2023-04-15T07:29:03.983Z,34.44
2023-04-15T07:31:31.320Z,34.27
2023-04-15T07:33:58.601Z,34.61
2023-04-15T07:36:25.475Z,34.31
2023-04-15T07:38:52.570Z,34.38
2023-04-15T07:41:19.301Z,34.38
2023-04-15T07:43:45.764Z,34.48
2023-04-15T07:46:12.758Z,34.33
2023-04-15T07:48:39.378Z,34.36
2023-04-15T07:51:06.188Z,34.50
2023-04-15T07:53:33.250Z,34.78
2023-04-15T07:55:59.758Z,34.30
2023-04-15T07:58:26.230Z,34.32
2023-04-15T08:00:52.856Z,34.37
2023-04-15T08:03:19.457Z,34.71
2023-04-15T08:05:47.299Z,34.65
2023-04-15T08:08:14.007Z,34.39
2023-04-15T08:10:40.949Z,34.32
2023-04-15T08:13:07.786Z,34.37
2023-04-15T08:15:34.375Z,34.69
2023-04-15T08:18:01.153Z,34.33
2023-04-15T08:20:27.963Z,34.32
2023-04-15T08:22:54.439Z,34.56
2023-04-15T08:25:21.494Z,34.58
2023-04-15T08:27:48.216Z,34.61
2023-04-15T08:30:15.325Z,34.43
2023-04-15T08:32:42.737Z,34.64
2023-04-15T08:35:09.454Z,34.69
2023-04-15T08:37:35.935Z,34.74
2023-04-15T08:40:02.397Z,34.32
2023-04-15T08:42:35.230Z,34.77
2023-04-15T08:45:04.979Z,34.45
2023-04-15T08:47:33.768Z,34.51
2023-04-15T08:50:04.352Z,34.48
2023-04-15T08:52:31.577Z,34.55
2023-04-15T08:55:00.297Z,34.73
2023-04-15T08:57:28.562Z,34.74
2023-04-15T08:59:58.329Z,34.62
2023-04-15T09:02:27.327Z,34.45
2023-04-15T09:04:54.180Z,34.59
2023-04-15T09:07:20.751Z,34.50
2023-04-15T09:09:48.454Z,34.66
2023-04-15T09:12:16.882Z,34.60
2023-04-15T09:14:46.827Z,34.91
2023-04-15T09:17:13.420Z,34.59
2023-04-15T09:19:39.866Z,34.68
2023-04-15T09:22:06.545Z,34.81
2023-04-15T09:24:42.233Z,34.59
2023-04-15T09:27:09.277Z,34.78
2023-04-15T09:29:37.035Z,34.60
2023-04-15T09:32:11.848Z,34.70
2023-04-15T09:34:38.520Z,34.69
2023-04-15T09:37:05.141Z,34.75
2023-04-15T09:39:49.805Z,35.05
2023-04-15T09:42:17.619Z,34.84
2023-04-15T09:44:44.384Z,34.73
2023-04-15T09:47:27.532Z,34.59
2023-04-15T09:49:58.554Z,34.73
2023-04-15T09:52:25.182Z,34.98
2023-04-15T09:54:57.261Z,35.21
2023-04-15T09:57:24.587Z,35.15
2023-04-15T09:59:51.956Z,35.25
2023-04-15T10:02:21.098Z,35.03
2023-04-15T10:04:49.119Z,35.12
2023-04-15T10:07:18.084Z,35.28
2023-04-15T10:09:46.320Z,35.37
2023-04-15T10:12:14.793Z,35.25
2023-04-15T10:14:44.341Z,35.34
2023-04-15T10:17:17.739Z,35.36
2023-04-15T10:19:45.241Z,35.57
2023-04-15T10:22:11.945Z,35.54
2023-04-15T10:24:39.215Z,35.51
2023-04-15T10:27:06.401Z,35.48
2023-04-15T10:29:33.104Z,35.78
2023-04-15T10:32:00.653Z,35.72
2023-04-15T10:34:27.913Z,35.78
2023-04-15T10:37:04.051Z,35.61
2023-04-15T10:39:33.909Z,35.59
2023-04-15T10:42:19.754Z,35.91
2023-04-15T10:44:51.812Z,35.76
2023-04-15T10:47:21.474Z,35.99
2023-04-15T10:49:51.464Z,35.97
2023-04-15T10:52:23.644Z,35.80
2023-04-15T10:54:50.261Z,35.91
2023-04-15T10:57:16.882Z,36.14
2023-04-15T10:59:58.800Z,35.96
2023-04-15T11:02:48.094Z,35.74
2023-04-15T11:05:16.721Z,36.21
2023-04-15T11:07:46.809Z,36.13
2023-04-15T11:10:25.962Z,35.84
2023-04-15T11:12:54.802Z,36.09
2023-04-15T11:15:25.337Z,36.00
2023-04-15T11:17:52.289Z,35.87
2023-04-15T11:20:19.134Z,36.13
2023-04-15T11:22:53.145Z,36.32
2023-04-15T11:25:39.640Z,36.23
2023-04-15T11:28:07.597Z,36.10
2023-04-15T11:30:36.632Z,36.21
2023-04-15T11:33:12.072Z,36.11
2023-04-15T11:35:41.757Z,35.93
2023-04-15T11:38:10.678Z,36.20
2023-04-15T11:40:37.696Z,36.09
2023-04-15T11:43:21.098Z,36.18
2023-04-15T11:45:59.100Z,36.04
2023-04-15T11:48:27.924Z,35.97
2023-04-15T11:51:00.236Z,36.03
2023-04-15T11:53:45.986Z,36.14
2023-04-15T11:56:24.269Z,36.36
2023-04-15T11:58:57.075Z,36.34
2023-04-15T12:01:42.295Z,36.37
2023-04-15T12:04:22.566Z,35.98
2023-04-15T12:06:51.608Z,36.09
2023-04-15T12:09:18.304Z,36.33
2023-04-15T12:11:49.902Z,36.11
2023-04-15T12:14:30.475Z,36.04
2023-04-15T12:17:00.000Z,36.35
2023-04-15T12:19:29.382Z,36.01
2023-04-15T12:22:08.854Z,36.11
2023-04-15T12:24:37.039Z,35.96
2023-04-15T12:27:08.023Z,35.99
2023-04-15T12:29:36.443Z,35.98
2023-04-15T12:32:10.355Z,36.43
2023-04-15T12:34:39.369Z,36.01
2023-04-15T12:37:09.454Z,36.24
2023-04-15T12:39:37.991Z,36.04
2023-04-15T12:42:06.105Z,36.26
2023-04-15T12:44:33.636Z,36.04
2023-04-15T12:47:00.551Z,35.94
2023-04-15T12:49:27.609Z,35.93
2023-04-15T12:51:56.939Z,35.94
2023-04-15T12:54:23.483Z,36.15
2023-04-15T12:56:51.206Z,36.02
2023-04-15T12:59:18.564Z,35.87
2023-04-15T13:01:45.818Z,36.21
2023-04-15T13:04:12.377Z,35.73
2023-04-15T13:06:39.043Z,36.04
2023-04-15T13:09:06.343Z,36.02
2023-04-15T13:11:36.625Z,36.02
2023-04-15T13:14:05.281Z,35.98
2023-04-15T13:16:33.062Z,35.79
2023-04-15T13:19:00.429Z,36.05
2023-04-15T13:21:27.742Z,35.62
2023-04-15T13:23:54.501Z,35.85
2023-04-15T13:26:21.214Z,35.67
2023-04-15T13:28:48.141Z,35.77
2023-04-15T13:31:14.706Z,35.66
2023-04-15T13:33:41.242Z,35.65
2023-04-15T13:36:08.332Z,35.79
2023-04-15T13:38:34.849Z,35.49
2023-04-15T13:41:01.566Z,35.66
2023-04-15T13:43:28.269Z,35.61
2023-04-15T13:45:55.301Z,35.51
2023-04-15T13:48:21.869Z,35.20
2023-04-15T13:50:48.339Z,35.87
2023-04-15T13:53:16.296Z,35.34
2023-04-15T13:55:43.206Z,35.43
2023-04-15T13:58:10.256Z,35.59
2023-04-15T14:00:37.261Z,35.60
2023-04-15T14:03:04.085Z,35.65
2023-04-15T14:05:30.822Z,35.61
2023-04-15T14:07:57.582Z,35.68
2023-04-15T14:10:24.122Z,35.39
2023-04-15T14:12:50.740Z,35.63
2023-04-15T14:15:17.321Z,35.51
2023-04-15T14:17:43.832Z,35.56
2023-04-15T14:20:10.614Z,35.26
2023-04-15T14:22:37.103Z,35.69
2023-04-15T14:25:04.502Z,35.50
2023-04-15T14:27:31.142Z,35.63
2023-04-15T14:29:58.758Z,35.33
2023-04-15T14:32:26.335Z,35.53
2023-04-15T14:34:52.867Z,35.44
2023-04-15T14:37:19.568Z,35.67
2023-04-15T14:39:46.334Z,35.19
2023-04-15T14:42:12.799Z,35.47
2023-04-15T14:44:39.353Z,35.41
2023-04-15T14:47:06.084Z,35.25
2023-04-15T14:49:32.745Z,35.29
2023-04-15T14:51:59.264Z,35.59
2023-04-15T14:54:25.744Z,35.21
2023-04-15T14:56:52.249Z,35.39
2023-04-15T14:59:18.705Z,35.02
2023-04-15T15:01:45.515Z,35.40
2023-04-15T15:04:13.016Z,35.28
2023-04-15T15:06:40.213Z,35.26
2023-04-15T15:09:06.916Z,35.22
2023-04-15T15:11:33.665Z,35.22
2023-04-15T15:14:00.246Z,35.10
2023-04-15T15:16:28.250Z,35.36
2023-04-15T15:18:55.069Z,35.18
2023-04-15T15:21:21.713Z,34.97
2023-04-15T15:23:48.532Z,35.15
2023-04-15T15:26:15.397Z,35.08
2023-04-15T15:28:42.244Z,35.55
2023-04-15T15:31:09.001Z,35.14
2023-04-15T15:33:35.577Z,35.06
2023-04-15T15:36:03.616Z,34.99
2023-04-15T15:38:30.428Z,34.94
2023-04-15T15:40:56.971Z,34.94
2023-04-15T15:43:23.593Z,34.94
2023-04-15T15:45:52.257Z,34.87
2023-04-15T15:48:18.819Z,35.25
2023-04-15T15:50:45.738Z,35.05
2023-04-15T15:53:17.801Z,34.92
2023-04-15T15:55:44.333Z,35.44
2023-04-15T15:58:11.037Z,34.73
2023-04-15T16:00:37.666Z,35.03
2023-04-15T16:03:07.148Z,35.14
2023-04-15T16:05:35.111Z,35.04
2023-04-15T16:08:01.877Z,34.94
2023-04-15T16:10:28.905Z,35.24
2023-04-15T16:12:55.786Z,35.11
2023-04-15T16:15:23.932Z,35.30
2023-04-15T16:17:50.560Z,34.89
2023-04-15T16:20:17.239Z,35.25
2023-04-15T16:22:43.759Z,35.13
2023-04-15T16:25:10.579Z,35.17
2023-04-15T16:30:08.986Z,35.14
2023-04-15T16:32:36.106Z,35.39
2023-04-15T16:35:03.600Z,35.31
2023-04-15T16:37:31.494Z,35.28
2023-04-15T16:39:58.000Z,35.50
2023-04-15T16:42:24.619Z,35.39
2023-04-15T16:44:51.139Z,35.42
2023-04-15T16:47:17.766Z,35.16
2023-04-15T16:49:44.250Z,35.45
2023-04-15T16:52:10.857Z,35.54
2023-04-15T16:54:41.200Z,35.40
2023-04-15T16:57:08.711Z,35.44
2023-04-15T16:59:35.329Z,35.45
2023-04-15T17:02:01.902Z,35.49
2023-04-15T17:04:28.922Z,35.27
2023-04-15T17:06:55.597Z,35.55
2023-04-15T17:09:22.138Z,35.57
2023-04-15T17:11:49.887Z,35.37
2023-04-15T17:14:16.358Z,35.55
2023-04-15T17:16:43.264Z,35.28
2023-04-15T17:19:09.768Z,35.40
2023-04-15T17:21:36.556Z,35.46
2023-04-15T17:24:03.307Z,35.79
2023-04-15T17:26:31.040Z,35.82
2023-04-15T17:28:57.689Z,35.52
2023-04-15T17:31:25.403Z,35.69
2023-04-15T17:34:02.837Z,35.52
2023-04-15T17:36:36.140Z,35.64
2023-04-15T17:39:05.027Z,35.38
2023-04-15T17:41:32.746Z,35.59
2023-04-15T17:43:59.368Z,35.66
2023-04-15T17:46:26.805Z,35.84
2023-04-15T17:48:53.343Z,35.83
2023-04-15T17:51:19.892Z,35.78
2023-04-15T17:53:46.361Z,35.66
2023-04-15T17:56:12.865Z,35.51
2023-04-15T17:58:39.423Z,35.85
2023-04-15T18:01:06.375Z,35.64
2023-04-15T18:03:33.061Z,35.96
2023-04-15T18:06:01.303Z,35.96
2023-04-15T18:08:28.922Z,35.85
2023-04-15T18:10:55.500Z,35.78
2023-04-15T18:13:21.991Z,35.85
2023-04-15T18:15:49.487Z,35.84
2023-04-15T18:18:17.154Z,35.79
2023-04-15T18:20:43.660Z,35.76
2023-04-15T18:23:10.375Z,36.00
2023-04-15T18:25:38.293Z,35.73
2023-04-15T18:28:05.592Z,35.96
2023-04-15T18:30:32.242Z,36.11
2023-04-15T18:32:58.825Z,36.09
2023-04-15T18:35:25.517Z,35.78
2023-04-15T18:37:52.783Z,36.06
2023-04-15T18:40:19.329Z,35.91
2023-04-15T18:42:45.906Z,35.95
2023-04-15T18:45:12.455Z,35.82
2023-04-15T18:47:39.152Z,35.97
2023-04-15T18:50:06.734Z,36.07
2023-04-15T18:52:34.163Z,35.83
2023-04-15T18:55:03.032Z,35.64
2023-04-15T18:57:35.011Z,36.01
2023-04-15T19:00:03.549Z,36.03
2023-04-15T19:02:30.101Z,35.88
2023-04-15T19:04:56.674Z,36.03
2023-04-15T19:07:23.207Z,35.92
2023-04-15T19:09:49.800Z,35.88
2023-04-15T19:12:16.289Z,36.16
2023-04-15T19:14:42.817Z,35.98
2023-04-15T19:17:09.323Z,36.07
2023-04-15T19:19:36.887Z,36.20
2023-04-15T19:22:03.424Z,35.96
2023-04-15T19:24:33.030Z,36.20
2023-04-15T19:26:59.944Z,36.14
2023-04-15T19:29:28.518Z,36.22
2023-04-15T19:31:55.200Z,35.98
2023-04-15T19:34:21.863Z,36.11
2023-04-15T19:36:48.375Z,35.86
2023-04-15T19:39:15.002Z,36.06
2023-04-15T19:41:41.559Z,35.93
2023-04-15T19:44:08.111Z,36.11
2023-04-15T19:46:34.737Z,36.23
2023-04-15T19:49:01.404Z,36.03
2023-04-15T19:51:28.469Z,36.22
2023-04-15T19:53:56.727Z,36.23
2023-04-15T19:56:24.167Z,36.09
2023-04-15T19:58:52.983Z,36.22
2023-04-15T20:01:20.478Z,36.08
2023-04-15T20:03:47.438Z,35.98
2023-04-15T20:06:17.162Z,35.87
2023-04-15T20:08:43.710Z,35.99
2023-04-15T20:11:10.640Z,36.08
2023-04-15T20:13:38.235Z,35.98
2023-04-15T20:16:07.871Z,35.96
2023-04-15T20:18:34.893Z,36.06
2023-04-15T20:21:01.664Z,36.11
2023-04-15T20:23:28.233Z,36.30
2023-04-15T20:25:54.764Z,36.22
2023-04-15T20:28:23.312Z,36.06
2023-04-15T20:30:49.837Z,36.08
2023-04-15T20:33:16.581Z,36.05
2023-04-15T20:35:43.039Z,36.19
2023-04-15T20:38:09.628Z,36.23
2023-04-15T20:40:36.392Z,36.10
2023-04-15T20:43:02.909Z,35.95
2023-04-15T20:45:29.480Z,36.08
2023-04-15T20:47:56.133Z,36.24
2023-04-15T20:50:23.704Z,36.46
2023-04-15T20:52:50.186Z,36.04
2023-04-15T20:55:16.811Z,36.49
2023-04-15T20:57:43.381Z,36.11
2023-04-15T21:00:10.887Z,36.05
2023-04-15T21:02:37.979Z,36.08
2023-04-15T21:05:04.956Z,36.30
2023-04-15T21:07:31.489Z,36.18
2023-04-15T21:09:57.999Z,36.30
2023-04-15T21:12:24.595Z,36.48
2023-04-15T21:14:51.252Z,36.37
2023-04-15T21:17:17.807Z,36.19
2023-04-15T21:19:44.615Z,36.08
2023-04-15T21:22:11.235Z,36.11
2023-04-15T21:24:37.803Z,36.27
2023-04-15T21:27:04.284Z,36.44
2023-04-15T21:29:30.785Z,36.33
2023-04-15T21:31:57.326Z,36.27
2023-04-15T21:34:23.877Z,36.31
2023-04-15T21:36:50.623Z,36.17
2023-04-15T21:39:17.275Z,36.57
2023-04-15T21:41:43.842Z,36.06
2023-04-15T21:44:12.060Z,36.00
2023-04-15T21:46:39.716Z,36.15
2023-04-15T21:49:07.082Z,36.39
2023-04-15T21:51:34.013Z,36.23
2023-04-15T21:54:00.641Z,36.25
2023-04-15T21:56:27.165Z,36.17
2023-04-15T21:58:59.573Z,36.38
2023-04-15T22:01:26.781Z,36.24
2023-04-15T22:03:53.610Z,36.14
2023-04-15T22:06:20.479Z,36.51
2023-04-15T22:08:56.159Z,36.42
2023-04-15T22:11:28.417Z,36.26
2023-04-15T22:13:56.662Z,36.39
2023-04-15T22:16:24.508Z,36.49
2023-04-15T22:18:51.308Z,36.33
2023-04-15T22:21:17.785Z,36.27
2023-04-15T22:23:48.380Z,36.17
2023-04-15T22:26:14.887Z,36.48
2023-04-15T22:28:41.829Z,36.14
2023-04-15T22:31:08.428Z,36.38
2023-04-15T22:33:35.112Z,36.32
2023-04-15T22:36:01.556Z,36.12
2023-04-15T22:38:27.994Z,35.93
2023-04-15T22:40:54.553Z,36.30
2023-04-15T22:43:21.118Z,36.19
2023-04-15T22:45:51.101Z,36.56
2023-04-15T22:48:18.524Z,36.32
2023-04-15T22:50:45.140Z,36.62
2023-04-15T22:53:11.662Z,36.32
2023-04-15T22:55:38.289Z,36.37
2023-04-15T22:58:04.856Z,36.42
2023-04-15T23:00:31.348Z,36.38
2023-04-15T23:02:58.038Z,36.21
2023-04-15T23:05:24.803Z,36.14
2023-04-15T23:07:51.340Z,36.23
2023-04-15T23:10:17.823Z,36.25
2023-04-15T23:12:44.318Z,36.25
2023-04-15T23:15:11.646Z,36.08
2023-04-15T23:17:38.373Z,36.44
2023-04-15T23:20:05.627Z,36.41
2023-04-15T23:22:32.123Z,36.28
2023-04-15T23:24:58.584Z,36.28
2023-04-15T23:27:25.160Z,36.19
2023-04-15T23:29:51.654Z,36.48
2023-04-15T23:32:18.200Z,36.58
2023-04-15T23:34:44.688Z,36.31
2023-04-15T23:37:11.425Z,36.20
2023-04-15T23:39:37.877Z,36.13
2023-04-15T23:42:04.360Z,36.33
2023-04-15T23:44:30.925Z,36.07
2023-04-15T23:46:57.470Z,36.00
2023-04-15T23:49:23.989Z,35.93
2023-04-15T23:51:51.020Z,36.14
2023-04-15T23:54:17.531Z,36.16
2023-04-15T23:56:44.069Z,36.36
2023-04-15T23:59:10.639Z,36.14
